Terminal Aerodrome Forecast
Issued by NWS

Home | Current Version | Previous Version | Text Only | Print | Product List | Glossary Off
Versions: 1 2 3 4 5 6 7 8 9 10 11 12 13 14 15 16 17

000
FTUS42 KMHX 161126
TAFPGV
TAF
KPGV 161126Z 1612/1712 25003KT 3SM BR FEW005 SCT090
     FM161300 31006KT P6SM VCSH SCT020 BKN090
     FM161700 02010G18KT 6SM -SHRA OVC025
     FM162200 02008KT P6SM BKN040
     FM170200 02005KT P6SM FEW250
      AMD LTD TO CLD VIS AND WIND=

USA.gov is the U.S. government's official web portal to all federal, state and local government web resources and services.